Terminal Aerodrome Forecast
Issued by NWS

Home | Current Version | Previous Version | Text Only | Print | Product List | Glossary On
Versions: 1 2 3 4 5 6 7 8 9 10 11 12 13 14 15 16 17 18 19 20
000
FTUS43 KAPX 022329
TAFPLN
TAF
KPLN 022329Z 0300/0324 24006KT P6SM VCSH SCT045 BKN100
     FM030200 VRB03KT P6SM BKN040
     FM030500 29007KT P6SM BKN015
     FM031400 31010KT P6SM SCT020 BKN040
     FM031800 29010KT P6SM BKN045=

USA.gov is the U.S. government's official web portal to all federal, state and local government web resources and services.